Port Saunders, Canada
Current Conditions -  °F | °C
As of 12:00 PM on Friday 19 Dec 2014 (Local Time) from CWDH Reporting Station
Overcast Overcast  
Wind Chill: 20°   Ceiling: 1000
Heat Index: 32°   Visibility: 0.5mi
Dew Point: 28°   Wind: 21mph
Humidity: 86%   Direction: 20°NNE
Pressure: 29.36"   Gusts: 29mph
Location:  50.65°N, 57.27°W
Report Text: CWDH 191500Z AUTO 02018G25KT 1/2SM OVC000 OVC010 M00/M02 A2936 RMK SLP943 PK WND 01025/// T10011022 P0004 60010 70033 WSI/SWOB
Loading
Personal Weather Stations






























Interactive Weather Map New forecast layout! Learn more

10-Day Weather Forecast

Advertisements
Track Severe Weather on mobile